createdAt,value
2018-09-27T00:01:00.185Z,9.00
2018-09-27T00:03:28.517Z,9.00
2018-09-27T00:05:56.881Z,9.00
2018-09-27T00:08:25.212Z,9.00
2018-09-27T00:10:53.541Z,8.90
2018-09-27T00:13:21.869Z,8.90
2018-09-27T00:15:50.204Z,8.90
2018-09-27T00:18:18.502Z,8.90
2018-09-27T00:20:46.828Z,8.70
2018-09-27T00:23:15.176Z,8.70
2018-09-27T00:25:43.519Z,8.60
2018-09-27T00:28:11.745Z,8.60
2018-09-27T00:30:39.973Z,8.70
2018-09-27T00:33:08.234Z,8.80
2018-09-27T00:35:36.429Z,8.80
2018-09-27T00:38:04.744Z,8.80
2018-09-27T00:40:32.936Z,8.70
2018-09-27T00:43:01.164Z,8.70
2018-09-27T00:45:29.401Z,8.70
2018-09-27T00:47:57.629Z,8.60
2018-09-27T00:50:25.824Z,8.60
2018-09-27T00:52:54.003Z,8.60
2018-09-27T00:55:22.216Z,8.50
2018-09-27T00:57:50.371Z,8.50
2018-09-27T01:00:18.587Z,8.60
2018-09-27T01:02:46.771Z,8.60
2018-09-27T01:05:14.952Z,8.60
2018-09-27T01:07:43.196Z,8.50
2018-09-27T01:10:11.389Z,8.40
2018-09-27T01:12:39.580Z,8.40
2018-09-27T01:15:07.800Z,8.30
2018-09-27T01:17:35.965Z,8.40
2018-09-27T01:20:04.316Z,8.40
2018-09-27T01:22:32.493Z,8.40
2018-09-27T01:25:00.693Z,8.30
2018-09-27T01:27:28.945Z,8.30
2018-09-27T01:29:57.141Z,8.20
2018-09-27T01:32:25.404Z,8.30
2018-09-27T01:34:53.609Z,8.30
2018-09-27T01:37:21.790Z,8.30
2018-09-27T01:39:49.988Z,8.20
2018-09-27T01:42:18.204Z,8.20
2018-09-27T01:44:46.384Z,8.20
2018-09-27T01:47:14.648Z,8.10
2018-09-27T01:49:42.844Z,8.00
2018-09-27T01:52:11.036Z,8.10
2018-09-27T01:54:39.237Z,8.10
2018-09-27T01:57:07.441Z,8.10
2018-09-27T01:59:35.605Z,8.10
2018-09-27T02:02:03.813Z,8.10
2018-09-27T02:04:31.980Z,8.10
2018-09-27T02:07:00.332Z,8.10
2018-09-27T02:09:28.544Z,8.10
2018-09-27T02:11:56.752Z,8.10
2018-09-27T02:14:25.070Z,8.20
2018-09-27T02:16:53.265Z,8.20
2018-09-27T02:19:21.449Z,8.10
2018-09-27T02:21:49.626Z,7.90
2018-09-27T02:24:17.830Z,7.80
2018-09-27T02:26:46.012Z,7.70
2018-09-27T02:29:14.202Z,7.70
2018-09-27T02:31:42.368Z,7.70
2018-09-27T02:34:10.549Z,7.70
2018-09-27T02:36:38.740Z,7.60
2018-09-27T02:39:09.067Z,7.50
2018-09-27T02:41:37.625Z,7.50
2018-09-27T02:44:05.785Z,7.60
2018-09-27T02:46:33.993Z,7.50
2018-09-27T02:49:02.396Z,7.50
2018-09-27T02:51:30.601Z,7.60
2018-09-27T02:53:58.807Z,7.60
2018-09-27T02:56:26.991Z,7.60
2018-09-27T02:58:55.229Z,7.70
2018-09-27T03:01:23.395Z,7.60
2018-09-27T03:03:51.644Z,7.50
2018-09-27T03:06:19.819Z,7.50
2018-09-27T03:08:48.096Z,7.50
2018-09-27T03:11:16.245Z,7.60
2018-09-27T03:13:44.478Z,7.60
2018-09-27T03:16:12.686Z,7.60
2018-09-27T03:18:40.920Z,7.60
2018-09-27T03:21:09.102Z,7.60
2018-09-27T03:23:37.308Z,7.60
2018-09-27T03:26:05.589Z,7.50
2018-09-27T03:28:33.773Z,7.40
2018-09-27T03:31:02.005Z,7.30
2018-09-27T03:33:30.181Z,7.20
2018-09-27T03:35:58.385Z,7.20
2018-09-27T03:38:26.569Z,7.20
2018-09-27T03:40:54.769Z,7.10
2018-09-27T03:43:22.944Z,7.00
2018-09-27T03:45:51.195Z,6.90
2018-09-27T03:48:19.388Z,6.90
2018-09-27T03:50:47.576Z,6.90
2018-09-27T03:53:15.779Z,6.90
2018-09-27T03:55:43.936Z,7.00
2018-09-27T03:58:12.136Z,7.00
2018-09-27T04:00:40.325Z,7.00
2018-09-27T04:03:08.566Z,7.00
2018-09-27T04:05:36.708Z,7.00
2018-09-27T04:08:04.960Z,7.00
2018-09-27T04:10:33.157Z,7.00
2018-09-27T04:13:01.352Z,7.00
2018-09-27T04:15:29.552Z,7.00
2018-09-27T04:17:57.704Z,7.00
2018-09-27T04:20:25.968Z,7.00
2018-09-27T04:22:54.192Z,6.90
2018-09-27T04:25:22.351Z,6.90
2018-09-27T04:27:50.605Z,6.90
2018-09-27T04:30:18.807Z,6.80
2018-09-27T04:32:47.039Z,6.80
2018-09-27T04:35:15.228Z,6.90
2018-09-27T04:37:43.454Z,6.90
2018-09-27T04:40:11.636Z,6.90
2018-09-27T04:42:39.810Z,6.90
2018-09-27T04:45:08.043Z,7.00
2018-09-27T04:47:39.009Z,7.10
2018-09-27T04:50:07.297Z,7.10
2018-09-27T04:52:35.530Z,7.20
2018-09-27T04:55:03.773Z,7.20
2018-09-27T04:57:31.984Z,7.20
2018-09-27T05:00:00.219Z,7.20
2018-09-27T05:02:28.420Z,7.20
2018-09-27T05:04:56.609Z,7.20
2018-09-27T05:07:24.890Z,7.10
2018-09-27T05:09:53.207Z,7.10
2018-09-27T05:12:21.407Z,7.10
2018-09-27T05:14:49.609Z,7.10
2018-09-27T05:17:17.773Z,7.10
2018-09-27T05:19:46.581Z,7.10
2018-09-27T05:22:15.246Z,7.00
2018-09-27T05:24:43.441Z,7.00
2018-09-27T05:27:11.685Z,7.00
2018-09-27T05:29:39.917Z,6.90
2018-09-27T05:32:08.306Z,6.90
2018-09-27T05:34:36.544Z,7.10
2018-09-27T05:37:04.712Z,7.20
2018-09-27T05:39:32.970Z,7.30
2018-09-27T05:42:01.148Z,7.30
2018-09-27T05:44:29.397Z,7.40
2018-09-27T05:46:57.610Z,7.40
2018-09-27T05:49:25.819Z,7.50
2018-09-27T05:51:54.011Z,7.80
2018-09-27T05:54:22.238Z,8.00
2018-09-27T05:56:50.458Z,8.30
2018-09-27T05:59:18.630Z,8.60
2018-09-27T06:01:47.030Z,8.80
2018-09-27T06:04:15.220Z,8.80
2018-09-27T06:06:43.634Z,8.90
2018-09-27T06:09:12.449Z,9.10
2018-09-27T06:11:40.698Z,9.20
2018-09-27T06:14:08.953Z,9.20
2018-09-27T06:16:38.032Z,9.30
2018-09-27T06:19:06.641Z,9.70
2018-09-27T06:21:34.928Z,10.00
2018-09-27T06:24:03.097Z,10.20
2018-09-27T06:26:31.353Z,10.50
2018-09-27T06:28:59.545Z,10.60
2018-09-27T06:31:27.889Z,10.70
2018-09-27T06:33:56.126Z,11.00
2018-09-27T06:36:24.344Z,11.30
2018-09-27T06:38:52.617Z,11.50
2018-09-27T06:41:20.844Z,11.40
2018-09-27T06:43:49.020Z,11.50
2018-09-27T06:46:17.249Z,11.60
2018-09-27T06:48:45.522Z,11.90
2018-09-27T06:51:13.660Z,12.10
2018-09-27T06:53:41.955Z,12.20
2018-09-27T06:56:10.216Z,12.40
2018-09-27T06:58:38.398Z,12.30
2018-09-27T07:01:06.632Z,12.30
2018-09-27T07:03:34.821Z,12.50
2018-09-27T07:06:03.065Z,12.70
2018-09-27T07:08:31.261Z,13.00
2018-09-27T07:10:59.588Z,13.10
2018-09-27T07:13:27.979Z,13.30
2018-09-27T07:15:56.236Z,13.30
2018-09-27T07:18:24.536Z,13.40
2018-09-27T07:20:52.740Z,13.60
2018-09-27T07:23:21.034Z,13.80
2018-09-27T07:25:49.270Z,14.10
2018-09-27T07:28:17.454Z,14.40
2018-09-27T07:30:45.658Z,14.70
2018-09-27T07:33:13.838Z,14.90
2018-09-27T07:35:42.047Z,14.90
2018-09-27T07:38:10.269Z,14.90
2018-09-27T07:40:38.457Z,15.10
2018-09-27T07:43:06.684Z,15.20
2018-09-27T07:45:34.949Z,15.10
2018-09-27T07:48:03.174Z,15.30
2018-09-27T07:50:31.421Z,15.50
2018-09-27T07:52:59.670Z,15.70
2018-09-27T07:55:27.862Z,15.90
2018-09-27T07:57:56.212Z,16.10
2018-09-27T08:00:24.442Z,16.10
2018-09-27T08:02:52.724Z,16.20
2018-09-27T08:05:20.970Z,16.20
2018-09-27T08:07:49.181Z,16.30
2018-09-27T08:10:17.397Z,16.30
2018-09-27T08:12:45.613Z,16.20
2018-09-27T08:15:13.801Z,16.10
2018-09-27T08:17:42.073Z,16.40
2018-09-27T08:20:10.323Z,16.40
2018-09-27T08:22:38.533Z,16.80
2018-09-27T08:25:06.762Z,16.90
2018-09-27T08:27:34.976Z,16.90
2018-09-27T08:30:03.292Z,17.00
2018-09-27T08:32:31.478Z,17.10
2018-09-27T08:34:59.732Z,17.30
2018-09-27T08:37:27.978Z,17.50
2018-09-27T08:39:56.180Z,17.50
2018-09-27T08:42:24.466Z,17.50
2018-09-27T08:44:52.809Z,17.80
2018-09-27T08:47:20.961Z,18.00
2018-09-27T08:49:49.204Z,18.20
2018-09-27T08:52:17.440Z,18.30
2018-09-27T08:54:45.653Z,18.40
2018-09-27T08:57:13.914Z,18.30
2018-09-27T08:59:42.146Z,18.30
2018-09-27T09:02:10.356Z,18.30
2018-09-27T09:04:38.589Z,18.30
2018-09-27T09:07:06.895Z,18.30
2018-09-27T09:09:35.201Z,18.40
2018-09-27T09:12:03.452Z,18.60
2018-09-27T09:14:31.701Z,18.70
2018-09-27T09:16:59.877Z,18.80
2018-09-27T09:19:28.173Z,18.60
2018-09-27T09:21:56.603Z,18.70
2018-09-27T09:24:24.894Z,18.60
2018-09-27T09:26:53.137Z,18.50
2018-09-27T09:29:21.415Z,18.70
2018-09-27T09:31:49.624Z,18.90
2018-09-27T09:34:17.900Z,19.00
2018-09-27T09:36:46.085Z,18.80
2018-09-27T09:39:14.317Z,18.90
2018-09-27T09:41:42.484Z,19.10
2018-09-27T09:44:10.699Z,18.90
2018-09-27T09:46:39.022Z,18.80
2018-09-27T09:49:06.890Z,19.00
2018-09-27T09:51:35.091Z,18.90
2018-09-27T09:54:03.329Z,19.10
2018-09-27T09:56:31.568Z,19.40
2018-09-27T09:58:59.832Z,19.40
2018-09-27T10:01:28.029Z,19.50
2018-09-27T10:03:56.258Z,19.80
2018-09-27T10:06:24.453Z,19.70
2018-09-27T10:08:52.740Z,19.80
2018-09-27T10:11:20.944Z,19.70
2018-09-27T10:13:49.189Z,19.70
2018-09-27T10:16:17.404Z,19.70
2018-09-27T10:18:45.661Z,19.60
2018-09-27T10:21:13.909Z,19.40
2018-09-27T10:23:42.141Z,19.50
2018-09-27T10:26:10.374Z,19.70
2018-09-27T10:28:38.554Z,19.80
2018-09-27T10:31:06.789Z,20.00
2018-09-27T10:33:35.037Z,20.10
2018-09-27T10:36:03.217Z,20.30
2018-09-27T10:38:31.517Z,20.20
2018-09-27T10:41:02.657Z,20.20
2018-09-27T10:43:30.883Z,20.00
2018-09-27T10:45:59.615Z,20.30
2018-09-27T10:48:29.260Z,20.40
2018-09-27T10:50:57.936Z,20.30
2018-09-27T10:53:28.626Z,20.30
2018-09-27T10:55:57.671Z,20.00
2018-09-27T10:58:26.330Z,20.30
2018-09-27T11:00:54.989Z,20.50
2018-09-27T11:03:23.687Z,20.80
2018-09-27T11:05:52.333Z,20.80
2018-09-27T11:08:21.027Z,21.00
2018-09-27T11:10:49.245Z,21.10
2018-09-27T11:13:17.440Z,21.30
2018-09-27T11:15:45.653Z,21.50
2018-09-27T11:18:13.873Z,21.60
2018-09-27T11:20:42.173Z,21.60
2018-09-27T11:23:10.394Z,21.60
2018-09-27T11:25:38.594Z,21.80
2018-09-27T11:28:07.255Z,21.70
2018-09-27T11:30:35.513Z,21.50
2018-09-27T11:33:03.765Z,21.70
2018-09-27T11:35:31.957Z,21.80
2018-09-27T11:38:00.233Z,21.80
2018-09-27T11:40:28.457Z,22.10
2018-09-27T11:42:56.768Z,22.30
2018-09-27T11:45:24.972Z,22.50
2018-09-27T11:47:53.185Z,22.50
2018-09-27T11:50:21.446Z,22.70
2018-09-27T11:52:49.653Z,22.70
2018-09-27T11:55:17.861Z,22.70
2018-09-27T11:57:46.085Z,22.70
2018-09-27T12:00:14.976Z,23.00
2018-09-27T12:02:43.197Z,22.70
2018-09-27T12:05:11.414Z,22.70
2018-09-27T12:07:39.853Z,22.90
2018-09-27T12:10:08.045Z,22.80
2018-09-27T12:12:36.248Z,22.80
2018-09-27T12:15:04.758Z,22.90
2018-09-27T12:17:32.977Z,22.90
2018-09-27T12:20:01.295Z,23.10
2018-09-27T12:22:29.473Z,22.90
2018-09-27T12:24:57.705Z,23.10
2018-09-27T12:27:25.929Z,23.30
2018-09-27T12:29:54.203Z,23.10
2018-09-27T12:32:22.407Z,23.20
2018-09-27T12:34:50.658Z,23.10
2018-09-27T12:37:18.862Z,23.10
2018-09-27T12:39:47.080Z,23.30
2018-09-27T12:42:15.491Z,23.10
2018-09-27T12:44:43.653Z,23.20
2018-09-27T12:47:11.880Z,23.50
2018-09-27T12:49:40.120Z,23.60
2018-09-27T12:52:08.648Z,23.50
2018-09-27T12:54:36.598Z,23.40
2018-09-27T12:57:04.931Z,23.40
2018-09-27T12:59:33.126Z,23.50
2018-09-27T13:02:01.561Z,23.40
2018-09-27T13:04:29.594Z,23.50
2018-09-27T13:06:57.855Z,23.60
2018-09-27T13:09:26.237Z,23.60
2018-09-27T13:11:54.417Z,23.80
2018-09-27T13:14:22.637Z,23.90
2018-09-27T13:16:50.889Z,23.90
2018-09-27T13:19:19.205Z,23.90
2018-09-27T13:21:47.623Z,24.00
2018-09-27T13:24:15.894Z,24.00
2018-09-27T13:26:44.165Z,23.80
2018-09-27T13:29:12.374Z,23.90
2018-09-27T13:31:40.594Z,23.90
2018-09-27T13:34:08.860Z,23.80
2018-09-27T13:36:37.068Z,23.80
2018-09-27T13:39:07.730Z,24.00
2018-09-27T13:41:36.206Z,24.10
2018-09-27T13:44:04.385Z,23.80
2018-09-27T13:46:32.653Z,23.90
2018-09-27T13:49:00.922Z,23.80
2018-09-27T13:51:29.094Z,23.80
2018-09-27T13:53:57.321Z,23.80
2018-09-27T13:56:25.505Z,23.80
2018-09-27T13:58:53.746Z,24.00
2018-09-27T14:01:21.973Z,24.00
2018-09-27T14:03:50.172Z,23.70
2018-09-27T14:06:18.401Z,23.70
2018-09-27T14:08:47.510Z,23.80
2018-09-27T14:11:15.717Z,23.60
2018-09-27T14:13:43.989Z,23.70
2018-09-27T14:16:12.173Z,23.70
2018-09-27T14:18:40.377Z,23.50
2018-09-27T14:21:08.605Z,23.30
2018-09-27T14:23:36.833Z,23.50
2018-09-27T14:26:05.114Z,23.50
2018-09-27T14:28:33.308Z,23.50
2018-09-27T14:31:01.647Z,23.40
2018-09-27T14:33:29.841Z,23.60
2018-09-27T14:35:58.078Z,23.70
2018-09-27T14:38:26.322Z,23.60
2018-09-27T14:40:54.567Z,23.60
2018-09-27T14:43:22.814Z,23.70
2018-09-27T14:45:51.046Z,23.50
2018-09-27T14:48:19.294Z,23.50
2018-09-27T14:50:47.521Z,23.30
2018-09-27T14:53:15.681Z,23.20
2018-09-27T14:55:43.920Z,23.00
2018-09-27T14:58:12.098Z,23.00
2018-09-27T15:00:40.396Z,22.90
2018-09-27T15:03:08.593Z,22.80
2018-09-27T15:05:36.806Z,22.70
2018-09-27T15:08:05.067Z,22.70
2018-09-27T15:10:33.357Z,22.70
2018-09-27T15:13:01.553Z,22.70
2018-09-27T15:15:29.789Z,22.60
2018-09-27T15:17:58.191Z,22.60
2018-09-27T15:20:26.281Z,22.60
2018-09-27T15:22:54.496Z,22.70
2018-09-27T15:25:22.742Z,22.70
2018-09-27T15:27:50.910Z,22.60
2018-09-27T15:30:19.112Z,22.40
2018-09-27T15:32:47.313Z,22.30
2018-09-27T15:35:15.549Z,22.30
2018-09-27T15:37:43.764Z,22.20
2018-09-27T15:40:11.962Z,22.00
2018-09-27T15:42:40.209Z,21.90
2018-09-27T15:45:08.417Z,21.90
2018-09-27T15:47:36.691Z,21.70
2018-09-27T15:50:05.163Z,21.50
2018-09-27T15:52:33.354Z,21.30
2018-09-27T15:55:01.551Z,21.10
2018-09-27T15:57:29.735Z,21.00
2018-09-27T15:59:58.000Z,20.90
2018-09-27T16:02:26.208Z,20.70
2018-09-27T16:04:54.408Z,20.60
2018-09-27T16:07:22.633Z,20.40
2018-09-27T16:09:50.827Z,20.20
2018-09-27T16:12:19.049Z,20.10
2018-09-27T16:14:47.282Z,19.90
2018-09-27T16:17:15.517Z,19.80
2018-09-27T16:19:43.737Z,19.60
2018-09-27T16:22:11.989Z,19.50
2018-09-27T16:24:40.294Z,19.30
2018-09-27T16:27:08.571Z,19.20
2018-09-27T16:29:36.835Z,19.10
2018-09-27T16:32:05.070Z,18.90
2018-09-27T16:34:33.268Z,18.80
2018-09-27T16:37:01.499Z,18.70
2018-09-27T16:39:29.690Z,18.50
2018-09-27T16:41:57.901Z,18.50
2018-09-27T16:44:26.110Z,18.40
2018-09-27T16:46:54.330Z,18.40
2018-09-27T16:49:22.530Z,18.30
2018-09-27T16:51:50.758Z,18.30
2018-09-27T16:54:18.993Z,18.20
2018-09-27T16:56:47.170Z,18.10
2018-09-27T16:59:16.346Z,18.00
2018-09-27T17:01:44.574Z,17.90
2018-09-27T17:04:12.726Z,17.80
2018-09-27T17:06:40.941Z,17.70
2018-09-27T17:09:10.730Z,17.60
2018-09-27T17:11:38.944Z,17.40
2018-09-27T17:14:07.398Z,17.30
2018-09-27T17:16:35.628Z,17.30
2018-09-27T17:19:03.927Z,17.20
2018-09-27T17:21:32.156Z,17.20
2018-09-27T17:24:00.345Z,17.10
2018-09-27T17:26:28.634Z,17.00
2018-09-27T17:28:56.904Z,16.90
2018-09-27T17:31:25.167Z,16.90
2018-09-27T17:33:53.361Z,16.70
2018-09-27T17:36:21.601Z,16.60
2018-09-27T17:38:49.854Z,16.60
2018-09-27T17:41:18.117Z,16.40
2018-09-27T17:43:46.395Z,16.40
2018-09-27T17:46:14.594Z,16.30
2018-09-27T17:48:42.816Z,16.20
2018-09-27T17:51:11.013Z,16.10
2018-09-27T17:53:39.237Z,16.00
2018-09-27T17:56:07.454Z,15.90
2018-09-27T17:58:35.692Z,15.70
2018-09-27T18:01:03.989Z,15.60
2018-09-27T18:03:32.209Z,15.50
2018-09-27T18:06:00.484Z,15.50
2018-09-27T18:08:28.665Z,15.40
2018-09-27T18:10:56.918Z,15.30
2018-09-27T18:13:25.167Z,15.30
2018-09-27T18:15:53.353Z,15.30
2018-09-27T18:18:21.573Z,15.30
2018-09-27T18:20:50.090Z,15.30
2018-09-27T18:23:18.341Z,15.40
2018-09-27T18:25:46.687Z,15.50
2018-09-27T18:28:14.889Z,15.40
2018-09-27T18:30:43.113Z,15.40
2018-09-27T18:33:11.325Z,15.40
2018-09-27T18:35:39.545Z,15.40
2018-09-27T18:38:07.896Z,15.40
2018-09-27T18:40:36.005Z,15.40
2018-09-27T18:43:04.288Z,15.30
2018-09-27T18:45:33.126Z,15.30
2018-09-27T18:48:01.351Z,15.30
2018-09-27T18:50:29.606Z,15.20
2018-09-27T18:52:57.801Z,15.10
2018-09-27T18:55:26.945Z,14.90
2018-09-27T18:57:55.177Z,14.90
2018-09-27T19:00:23.400Z,14.80
2018-09-27T19:02:51.640Z,14.80
2018-09-27T19:05:19.828Z,14.90
2018-09-27T19:07:48.079Z,14.90
2018-09-27T19:10:16.386Z,14.80
2018-09-27T19:12:45.575Z,14.80
2018-09-27T19:15:13.778Z,14.70
2018-09-27T19:17:42.001Z,14.70
2018-09-27T19:20:10.257Z,14.70
2018-09-27T19:22:38.513Z,14.70
2018-09-27T19:25:06.838Z,14.80
2018-09-27T19:27:35.089Z,14.80
2018-09-27T19:30:04.081Z,14.80
2018-09-27T19:32:32.924Z,14.80
2018-09-27T19:35:01.112Z,14.70
2018-09-27T19:37:30.257Z,14.60
2018-09-27T19:39:58.628Z,14.40
2018-09-27T19:42:27.441Z,14.30
2018-09-27T19:44:55.655Z,14.30
2018-09-27T19:47:24.474Z,14.30
2018-09-27T19:49:52.729Z,14.20
2018-09-27T19:52:23.087Z,14.10
2018-09-27T19:54:52.331Z,14.10
2018-09-27T19:57:20.944Z,14.00
2018-09-27T19:59:49.190Z,13.90
2018-09-27T20:02:17.778Z,13.80
2018-09-27T20:04:46.702Z,13.80
2018-09-27T20:07:14.930Z,13.70
2018-09-27T20:09:43.146Z,13.60
2018-09-27T20:12:11.426Z,13.50
2018-09-27T20:14:39.646Z,13.40
2018-09-27T20:17:07.865Z,13.30
2018-09-27T20:19:36.090Z,13.30
2018-09-27T20:22:04.521Z,13.20
2018-09-27T20:24:32.724Z,13.20
2018-09-27T20:27:00.896Z,13.20
2018-09-27T20:29:29.157Z,13.10
2018-09-27T20:31:57.383Z,13.10
2018-09-27T20:34:25.682Z,13.10
2018-09-27T20:36:53.916Z,13.10
2018-09-27T20:39:22.111Z,13.00
2018-09-27T20:41:50.357Z,12.80
2018-09-27T20:44:18.590Z,12.90
2018-09-27T20:46:46.778Z,12.90
2018-09-27T20:49:15.037Z,12.80
2018-09-27T20:51:43.229Z,12.70
2018-09-27T20:54:11.453Z,12.70
2018-09-27T20:56:39.635Z,12.70
2018-09-27T20:59:07.869Z,12.80
2018-09-27T21:01:36.093Z,12.70
2018-09-27T21:04:04.237Z,12.60
2018-09-27T21:06:32.417Z,12.60
2018-09-27T21:09:00.573Z,12.60
2018-09-27T21:11:28.753Z,12.60
2018-09-27T21:13:56.936Z,12.50
2018-09-27T21:16:25.305Z,12.40
2018-09-27T21:18:53.497Z,12.30
2018-09-27T21:21:21.650Z,12.30
2018-09-27T21:23:49.865Z,12.40
2018-09-27T21:26:18.088Z,12.30
2018-09-27T21:28:46.312Z,12.40
2018-09-27T21:31:14.494Z,12.40
2018-09-27T21:33:42.652Z,12.30
2018-09-27T21:36:10.832Z,12.40
2018-09-27T21:38:39.000Z,12.40
2018-09-27T21:41:07.172Z,12.40
2018-09-27T21:43:35.372Z,12.40
2018-09-27T21:46:03.525Z,12.40
2018-09-27T21:48:31.715Z,12.40
2018-09-27T21:50:59.921Z,12.40
2018-09-27T21:53:28.072Z,12.40
2018-09-27T21:55:56.244Z,12.40
2018-09-27T21:58:24.392Z,12.40
2018-09-27T22:00:53.089Z,12.20
2018-09-27T22:03:22.621Z,12.20
2018-09-27T22:05:51.061Z,12.10
2018-09-27T22:08:19.330Z,12.00
2018-09-27T22:10:47.737Z,11.80
2018-09-27T22:13:15.988Z,11.80
2018-09-27T22:15:44.168Z,11.80
2018-09-27T22:18:12.384Z,11.80
2018-09-27T22:20:40.581Z,11.70
2018-09-27T22:23:08.730Z,11.70
2018-09-27T22:25:36.897Z,11.60
2018-09-27T22:28:05.169Z,11.60
2018-09-27T22:30:33.401Z,11.50
2018-09-27T22:33:01.828Z,11.50
2018-09-27T22:35:29.976Z,11.40
2018-09-27T22:37:58.158Z,11.40
2018-09-27T22:40:26.313Z,11.40
2018-09-27T22:42:54.515Z,11.40
2018-09-27T22:45:22.709Z,11.40
2018-09-27T22:47:50.869Z,11.30
2018-09-27T22:50:19.058Z,11.30
2018-09-27T22:52:47.204Z,11.20
2018-09-27T22:55:15.398Z,11.10
2018-09-27T22:57:43.593Z,11.10
2018-09-27T23:00:11.741Z,11.10
2018-09-27T23:02:39.957Z,11.10
2018-09-27T23:05:08.117Z,11.10
2018-09-27T23:07:36.301Z,11.20
2018-09-27T23:10:04.781Z,11.20
2018-09-27T23:12:32.936Z,11.10
2018-09-27T23:15:01.117Z,11.00
2018-09-27T23:17:29.256Z,10.90
2018-09-27T23:19:57.456Z,11.00
2018-09-27T23:22:25.661Z,11.10
2018-09-27T23:24:53.821Z,11.10
2018-09-27T23:27:22.038Z,11.20
2018-09-27T23:29:50.177Z,11.20
2018-09-27T23:32:18.400Z,11.20
2018-09-27T23:34:46.644Z,11.10
2018-09-27T23:37:14.865Z,11.20
2018-09-27T23:39:43.031Z,11.20
2018-09-27T23:42:11.210Z,11.20
2018-09-27T23:44:39.433Z,11.10
2018-09-27T23:47:07.637Z,11.10
2018-09-27T23:49:35.853Z,11.10
2018-09-27T23:52:04.068Z,11.10
2018-09-27T23:54:32.266Z,11.00
2018-09-27T23:57:00.469Z,10.90
2018-09-27T23:59:28.685Z,10.70
